sensor_id;sensor_type;location;lat;lon;timestamp;P1;P2;P0
33948;PMS7003;20229;49.856;19.030;2022-11-27T00:00:23;53;36;25
33948;PMS7003;20229;49.856;19.030;2022-11-27T00:10:56;53;38;26
33948;PMS7003;20229;49.856;19.030;2022-11-27T00:16:12;49;35;25
33948;PMS7003;20229;49.856;19.030;2022-11-27T00:21:18;43;28;16
33948;PMS7003;20229;49.856;19.030;2022-11-27T00:26:37;48;33;22
33948;PMS7003;20229;49.856;19.030;2022-11-27T00:31:41;48;33;21
33948;PMS7003;20229;49.856;19.030;2022-11-27T00:37:03;46;31;21
33948;PMS7003;20229;49.856;19.030;2022-11-27T00:42:09;49;34;23
33948;PMS7003;20229;49.856;19.030;2022-11-27T00:47:29;49;33;22
33948;PMS7003;20229;49.856;19.030;2022-11-27T00:52:32;49;32;22
33948;PMS7003;20229;49.856;19.030;2022-11-27T00:57:55;50;33;22
33948;PMS7003;20229;49.856;19.030;2022-11-27T01:02:58;51;35;24
33948;PMS7003;20229;49.856;19.030;2022-11-27T01:08:21;49;34;23
33948;PMS7003;20229;49.856;19.030;2022-11-27T01:13:26;46;31;22
33948;PMS7003;20229;49.856;19.030;2022-11-27T01:18:47;48;35;23
33948;PMS7003;20229;49.856;19.030;2022-11-27T01:23:53;52;34;22
33948;PMS7003;20229;49.856;19.030;2022-11-27T01:29:13;43;29;19
33948;PMS7003;20229;49.856;19.030;2022-11-27T01:34:16;45;31;22
33948;PMS7003;20229;49.856;19.030;2022-11-27T01:39:39;43;27;18
33948;PMS7003;20229;49.856;19.030;2022-11-27T01:44:45;33;19;13
33948;PMS7003;20229;49.856;19.030;2022-11-27T01:50:06;36;24;15
33948;PMS7003;20229;49.856;19.030;2022-11-27T01:55:25;40;26;17
33948;PMS7003;20229;49.856;19.030;2022-11-27T02:00:30;36;20;9
33948;PMS7003;20229;49.856;19.030;2022-11-27T02:05:34;45;28;19
33948;PMS7003;20229;49.856;19.030;2022-11-27T02:32:07;30;14;12
33948;PMS7003;20229;49.856;19.030;2022-11-27T02:37:20;45;29;21
33948;PMS7003;20229;49.856;19.030;2022-11-27T02:42:35;40;26;17
33948;PMS7003;20229;49.856;19.030;2022-11-27T02:47:47;45;31;21
33948;PMS7003;20229;49.856;19.030;2022-11-27T02:52:53;44;24;13
33948;PMS7003;20229;49.856;19.030;2022-11-27T02:58:02;39;23;15
33948;PMS7003;20229;49.856;19.030;2022-11-27T03:03:11;41;24;16
33948;PMS7003;20229;49.856;19.030;2022-11-27T03:08:24;40;25;18
33948;PMS7003;20229;49.856;19.030;2022-11-27T03:13:33;48;32;24
33948;PMS7003;20229;49.856;19.030;2022-11-27T03:18:46;55;39;29
33948;PMS7003;20229;49.856;19.030;2022-11-27T03:23:58;52;36;29
33948;PMS7003;20229;49.856;19.030;2022-11-27T03:29:03;61;48;39
33948;PMS7003;20229;49.856;19.030;2022-11-27T03:34:23;54;39;30
33948;PMS7003;20229;49.856;19.030;2022-11-27T03:39:28;50;33;25
33948;PMS7003;20229;49.856;19.030;2022-11-27T04:00:37;44;29;20
33948;PMS7003;20229;49.856;19.030;2022-11-27T04:05:44;44;25;16
33948;PMS7003;20229;49.856;19.030;2022-11-27T04:10:47;40;25;16
33948;PMS7003;20229;49.856;19.030;2022-11-27T04:16:07;32;18;10
33948;PMS7003;20229;49.856;19.030;2022-11-27T04:21:11;30;18;11
33948;PMS7003;20229;49.856;19.030;2022-11-27T04:26:33;33;17;10
33948;PMS7003;20229;49.856;19.030;2022-11-27T04:31:36;30;13;8
33948;PMS7003;20229;49.856;19.030;2022-11-27T04:36:59;33;18;10
33948;PMS7003;20229;49.856;19.030;2022-11-27T04:42:03;35;19;12
33948;PMS7003;20229;49.856;19.030;2022-11-27T04:47:25;42;28;24
33948;PMS7003;20229;49.856;19.030;2022-11-27T04:52:29;50;37;30
33948;PMS7003;20229;49.856;19.030;2022-11-27T04:57:51;68;55;48
33948;PMS7003;20229;49.856;19.030;2022-11-27T05:02:54;69;54;48
33948;PMS7003;20229;49.856;19.030;2022-11-27T05:08:17;66;51;45
33948;PMS7003;20229;49.856;19.030;2022-11-27T05:13:20;62;47;43
33948;PMS7003;20229;49.856;19.030;2022-11-27T05:18:43;62;47;41
33948;PMS7003;20229;49.856;19.030;2022-11-27T05:23:46;59;44;39
33948;PMS7003;20229;49.856;19.030;2022-11-27T05:29:09;58;42;36
33948;PMS7003;20229;49.856;19.030;2022-11-27T05:34:13;57;42;34
33948;PMS7003;20229;49.856;19.030;2022-11-27T05:39:35;56;41;34
33948;PMS7003;20229;49.856;19.030;2022-11-27T05:44:38;54;40;32
33948;PMS7003;20229;49.856;19.030;2022-11-27T05:50:01;53;39;31
33948;PMS7003;20229;49.856;19.030;2022-11-27T05:55:05;50;36;29
33948;PMS7003;20229;49.856;19.030;2022-11-27T06:00:27;55;42;35
33948;PMS7003;20229;49.856;19.030;2022-11-27T06:05:30;55;42;35
33948;PMS7003;20229;49.856;19.030;2022-11-27T06:10:53;58;44;39
33948;PMS7003;20229;49.856;19.030;2022-11-27T06:15:56;61;47;43
33948;PMS7003;20229;49.856;19.030;2022-11-27T06:21:20;63;49;46
33948;PMS7003;20229;49.856;19.030;2022-11-27T06:26:27;63;48;43
33948;PMS7003;20229;49.856;19.030;2022-11-27T06:31:45;65;51;47
33948;PMS7003;20229;49.856;19.030;2022-11-27T06:36:49;63;51;47
33948;PMS7003;20229;49.856;19.030;2022-11-27T06:42:12;62;48;44
33948;PMS7003;20229;49.856;19.030;2022-11-27T06:47:15;63;50;46
33948;PMS7003;20229;49.856;19.030;2022-11-27T06:52:38;61;49;44
33948;PMS7003;20229;49.856;19.030;2022-11-27T06:57:41;63;52;48
33948;PMS7003;20229;49.856;19.030;2022-11-27T07:03:04;73;61;56
33948;PMS7003;20229;49.856;19.030;2022-11-27T07:08:07;62;50;45
33948;PMS7003;20229;49.856;19.030;2022-11-27T07:13:30;65;52;49
33948;PMS7003;20229;49.856;19.030;2022-11-27T07:18:35;66;54;48
33948;PMS7003;20229;49.856;19.030;2022-11-27T07:23:56;61;46;42
33948;PMS7003;20229;49.856;19.030;2022-11-27T07:29:00;62;47;42
33948;PMS7003;20229;49.856;19.030;2022-11-27T07:34:22;62;48;43
33948;PMS7003;20229;49.856;19.030;2022-11-27T07:39:25;60;47;42
33948;PMS7003;20229;49.856;19.030;2022-11-27T07:44:48;62;48;44
33948;PMS7003;20229;49.856;19.030;2022-11-27T07:49:51;58;43;37
33948;PMS7003;20229;49.856;19.030;2022-11-27T07:55:14;53;38;31
33948;PMS7003;20229;49.856;19.030;2022-11-27T08:00:18;55;40;31
33948;PMS7003;20229;49.856;19.030;2022-11-27T08:05:41;55;40;34
33948;PMS7003;20229;49.856;19.030;2022-11-27T08:10:44;56;43;39
33948;PMS7003;20229;49.856;19.030;2022-11-27T08:16:06;60;49;44
33948;PMS7003;20229;49.856;19.030;2022-11-27T08:21:10;66;54;51
33948;PMS7003;20229;49.856;19.030;2022-11-27T08:26:32;70;59;54
33948;PMS7003;20229;49.856;19.030;2022-11-27T08:31:35;71;58;53
33948;PMS7003;20229;49.856;19.030;2022-11-27T08:36:58;67;52;45
33948;PMS7003;20229;49.856;19.030;2022-11-27T08:42:01;57;41;33
33948;PMS7003;20229;49.856;19.030;2022-11-27T08:47:24;29;16;11
33948;PMS7003;20229;49.856;19.030;2022-11-27T08:52:27;33;17;10
33948;PMS7003;20229;49.856;19.030;2022-11-27T08:57:49;45;29;20
33948;PMS7003;20229;49.856;19.030;2022-11-27T09:02:53;60;46;40
33948;PMS7003;20229;49.856;19.030;2022-11-27T09:08:15;37;20;13
33948;PMS7003;20229;49.856;19.030;2022-11-27T09:13:22;43;27;19
33948;PMS7003;20229;49.856;19.030;2022-11-27T09:18:44;53;38;30
33948;PMS7003;20229;49.856;19.030;2022-11-27T09:23:53;45;31;24
33948;PMS7003;20229;49.856;19.030;2022-11-27T09:29:07;45;30;22
33948;PMS7003;20229;49.856;19.030;2022-11-27T09:34:10;50;34;25
33948;PMS7003;20229;49.856;19.030;2022-11-27T09:39:33;44;32;23
33948;PMS7003;20229;49.856;19.030;2022-11-27T09:50:42;46;35;25
33948;PMS7003;20229;49.856;19.030;2022-11-27T10:00:35;43;33;24
33948;PMS7003;20229;49.856;19.030;2022-11-27T10:05:59;45;35;25
33948;PMS7003;20229;49.856;19.030;2022-11-27T10:11:00;60;55;47
33948;PMS7003;20229;49.856;19.030;2022-11-27T10:21:33;61;51;44
33948;PMS7003;20229;49.856;19.030;2022-11-27T10:26:44;59;48;42
33948;PMS7003;20229;49.856;19.030;2022-11-27T10:37:09;40;33;24
33948;PMS7003;20229;49.856;19.030;2022-11-27T10:42:21;39;34;24
33948;PMS7003;20229;49.856;19.030;2022-11-27T10:47:30;46;36;26
33948;PMS7003;20229;49.856;19.030;2022-11-27T10:52:35;52;42;31
33948;PMS7003;20229;49.856;19.030;2022-11-27T10:57:52;33;27;19
33948;PMS7003;20229;49.856;19.030;2022-11-27T11:03:04;51;41;31
33948;PMS7003;20229;49.856;19.030;2022-11-27T11:13:27;40;31;21
33948;PMS7003;20229;49.856;19.030;2022-11-27T11:24:01;35;30;22
33948;PMS7003;20229;49.856;19.030;2022-11-27T11:34:29;43;35;25
33948;PMS7003;20229;49.856;19.030;2022-11-27T11:39:37;49;40;29
33948;PMS7003;20229;49.856;19.030;2022-11-27T11:49:57;45;38;27
33948;PMS7003;20229;49.856;19.030;2022-11-27T11:55:29;47;37;27
33948;PMS7003;20229;49.856;19.030;2022-11-27T12:00:37;54;42;30
33948;PMS7003;20229;49.856;19.030;2022-11-27T12:06:03;56;42;30
33948;PMS7003;20229;49.856;19.030;2022-11-27T12:11:16;52;39;27
33948;PMS7003;20229;49.856;19.030;2022-11-27T12:16:31;51;38;27
33948;PMS7003;20229;49.856;19.030;2022-11-27T12:48:02;38;32;23
33948;PMS7003;20229;49.856;19.030;2022-11-27T12:58:30;47;37;26
33948;PMS7003;20229;49.856;19.030;2022-11-27T13:09:01;43;34;25
33948;PMS7003;20229;49.856;19.030;2022-11-27T13:14:11;37;30;21
33948;PMS7003;20229;49.856;19.030;2022-11-27T13:19:24;39;32;22
33948;PMS7003;20229;49.856;19.030;2022-11-27T13:24:34;40;32;22
33948;PMS7003;20229;49.856;19.030;2022-11-27T13:29:39;37;31;21
33948;PMS7003;20229;49.856;19.030;2022-11-27T13:34:47;34;25;16
33948;PMS7003;20229;49.856;19.030;2022-11-27T13:45:17;26;21;13
33948;PMS7003;20229;49.856;19.030;2022-11-27T13:50:23;48;38;29
33948;PMS7003;20229;49.856;19.030;2022-11-27T14:00:43;41;33;24
33948;PMS7003;20229;49.856;19.030;2022-11-27T14:05:47;18;14;7
33948;PMS7003;20229;49.856;19.030;2022-11-27T14:11:09;59;52;46
33948;PMS7003;20229;49.856;19.030;2022-11-27T14:21:36;75;72;66
33948;PMS7003;20229;49.856;19.030;2022-11-27T14:26:46;76;68;64
33948;PMS7003;20229;49.856;19.030;2022-11-27T14:32:01;52;45;38
33948;PMS7003;20229;49.856;19.030;2022-11-27T14:37:04;40;32;25
33948;PMS7003;20229;49.856;19.030;2022-11-27T14:42:26;42;34;25
33948;PMS7003;20229;49.856;19.030;2022-11-27T14:47:31;41;33;25
33948;PMS7003;20229;49.856;19.030;2022-11-27T14:52:53;43;33;24
33948;PMS7003;20229;49.856;19.030;2022-11-27T14:57:59;44;36;25
33948;PMS7003;20229;49.856;19.030;2022-11-27T15:03:18;43;33;23
33948;PMS7003;20229;49.856;19.030;2022-11-27T15:08:23;44;34;26
33948;PMS7003;20229;49.856;19.030;2022-11-27T15:13:48;39;32;23
33948;PMS7003;20229;49.856;19.030;2022-11-27T15:19:00;44;36;25
33948;PMS7003;20229;49.856;19.030;2022-11-27T15:34:39;50;37;26
33948;PMS7003;20229;49.856;19.030;2022-11-27T15:39:47;46;36;25
33948;PMS7003;20229;49.856;19.030;2022-11-27T15:45:02;47;35;23
33948;PMS7003;20229;49.856;19.030;2022-11-27T15:50:06;43;32;19
33948;PMS7003;20229;49.856;19.030;2022-11-27T15:55:28;48;35;20
33948;PMS7003;20229;49.856;19.030;2022-11-27T16:00:32;63;49;37
33948;PMS7003;20229;49.856;19.030;2022-11-27T16:05:54;59;44;33
33948;PMS7003;20229;49.856;19.030;2022-11-27T16:11:01;57;42;31
33948;PMS7003;20229;49.856;19.030;2022-11-27T16:16:19;62;44;31
33948;PMS7003;20229;49.856;19.030;2022-11-27T16:21:23;61;43;30
33948;PMS7003;20229;49.856;19.030;2022-11-27T16:26:45;63;45;31
33948;PMS7003;20229;49.856;19.030;2022-11-27T16:31:49;57;39;24
33948;PMS7003;20229;49.856;19.030;2022-11-27T16:37:12;52;32;19
33948;PMS7003;20229;49.856;19.030;2022-11-27T16:42:18;47;29;18
33948;PMS7003;20229;49.856;19.030;2022-11-27T16:47:38;53;36;22
33948;PMS7003;20229;49.856;19.030;2022-11-27T16:52:41;58;41;26
33948;PMS7003;20229;49.856;19.030;2022-11-27T16:58:04;53;36;23
33948;PMS7003;20229;49.856;19.030;2022-11-27T17:03:07;69;50;35
33948;PMS7003;20229;49.856;19.030;2022-11-27T17:08:30;73;56;43
33948;PMS7003;20229;49.856;19.030;2022-11-27T17:13:34;78;64;48
33948;PMS7003;20229;49.856;19.030;2022-11-27T17:18:56;90;74;57
33948;PMS7003;20229;49.856;19.030;2022-11-27T17:24:04;87;72;56
33948;PMS7003;20229;49.856;19.030;2022-11-27T17:29:22;97;79;64
33948;PMS7003;20229;49.856;19.030;2022-11-27T17:34:26;87;72;60
33948;PMS7003;20229;49.856;19.030;2022-11-27T17:39:48;101;82;64
33948;PMS7003;20229;49.856;19.030;2022-11-27T17:44:52;90;72;57
33948;PMS7003;20229;49.856;19.030;2022-11-27T17:50:14;86;74;56
33948;PMS7003;20229;49.856;19.030;2022-11-27T17:55:18;87;70;54
33948;PMS7003;20229;49.856;19.030;2022-11-27T18:00:40;65;47;31
33948;PMS7003;20229;49.856;19.030;2022-11-27T18:05:44;92;78;59
33948;PMS7003;20229;49.856;19.030;2022-11-27T18:11:07;98;79;58
33948;PMS7003;20229;49.856;19.030;2022-11-27T18:16:14;92;74;58
33948;PMS7003;20229;49.856;19.030;2022-11-27T18:21:31;89;77;62
33948;PMS7003;20229;49.856;19.030;2022-11-27T18:26:35;80;66;58
33948;PMS7003;20229;49.856;19.030;2022-11-27T18:31:58;86;73;60
33948;PMS7003;20229;49.856;19.030;2022-11-27T18:37:02;91;76;61
33948;PMS7003;20229;49.856;19.030;2022-11-27T18:42:24;93;82;67
33948;PMS7003;20229;49.856;19.030;2022-11-27T18:47:28;92;78;64
33948;PMS7003;20229;49.856;19.030;2022-11-27T18:52:50;89;72;57
33948;PMS7003;20229;49.856;19.030;2022-11-27T18:57:54;75;70;58
33948;PMS7003;20229;49.856;19.030;2022-11-27T19:03:16;98;83;68
33948;PMS7003;20229;49.856;19.030;2022-11-27T19:08:19;93;79;63
33948;PMS7003;20229;49.856;19.030;2022-11-27T19:13:42;90;75;59
33948;PMS7003;20229;49.856;19.030;2022-11-27T19:18:47;77;72;61
33948;PMS7003;20229;49.856;19.030;2022-11-27T19:24:07;80;68;54
33948;PMS7003;20229;49.856;19.030;2022-11-27T19:29:12;85;70;58
33948;PMS7003;20229;49.856;19.030;2022-11-27T19:34:32;89;75;63
33948;PMS7003;20229;49.856;19.030;2022-11-27T19:39:35;90;77;65
33948;PMS7003;20229;49.856;19.030;2022-11-27T19:45:01;90;77;66
33948;PMS7003;20229;49.856;19.030;2022-11-27T19:50:05;89;79;70
33948;PMS7003;20229;49.856;19.030;2022-11-27T19:55:27;107;97;86
33948;PMS7003;20229;49.856;19.030;2022-11-27T20:00:30;119;107;94
33948;PMS7003;20229;49.856;19.030;2022-11-27T20:06:00;138;132;121
33948;PMS7003;20229;49.856;19.030;2022-11-27T20:11:10;114;112;102
33948;PMS7003;20229;49.856;19.030;2022-11-27T20:16:29;124;117;108
33948;PMS7003;20229;49.856;19.030;2022-11-27T20:21:35;139;133;123
33948;PMS7003;20229;49.856;19.030;2022-11-27T20:26:56;122;113;105
33948;PMS7003;20229;49.856;19.030;2022-11-27T20:31:59;110;102;94
33948;PMS7003;20229;49.856;19.030;2022-11-27T20:37:26;97;93;86
33948;PMS7003;20229;49.856;19.030;2022-11-27T20:42:30;109;97;91
33948;PMS7003;20229;49.856;19.030;2022-11-27T20:47:52;85;79;71
33948;PMS7003;20229;49.856;19.030;2022-11-27T20:52:55;78;70;61
33948;PMS7003;20229;49.856;19.030;2022-11-27T20:58:18;63;55;46
33948;PMS7003;20229;49.856;19.030;2022-11-27T21:03:21;62;51;40
33948;PMS7003;20229;49.856;19.030;2022-11-27T21:08:43;55;46;35
33948;PMS7003;20229;49.856;19.030;2022-11-27T21:13:47;54;43;32
33948;PMS7003;20229;49.856;19.030;2022-11-27T21:19:17;54;41;28
33948;PMS7003;20229;49.856;19.030;2022-11-27T21:24:23;58;42;29
33948;PMS7003;20229;49.856;19.030;2022-11-27T21:29:36;58;46;30
33948;PMS7003;20229;49.856;19.030;2022-11-27T21:34:39;45;34;20
33948;PMS7003;20229;49.856;19.030;2022-11-27T21:40:02;62;47;33
33948;PMS7003;20229;49.856;19.030;2022-11-27T21:45:06;61;48;32
33948;PMS7003;20229;49.856;19.030;2022-11-27T21:50:27;44;33;19
33948;PMS7003;20229;49.856;19.030;2022-11-27T21:55:31;56;41;28
33948;PMS7003;20229;49.856;19.030;2022-11-27T22:00:53;55;41;27
33948;PMS7003;20229;49.856;19.030;2022-11-27T22:06:01;51;39;27
33948;PMS7003;20229;49.856;19.030;2022-11-27T22:11:20;53;41;28
33948;PMS7003;20229;49.856;19.030;2022-11-27T22:16:30;38;29;19
33948;PMS7003;20229;49.856;19.030;2022-11-27T22:21:45;49;37;25
33948;PMS7003;20229;49.856;19.030;2022-11-27T22:26:50;53;40;27
33948;PMS7003;20229;49.856;19.030;2022-11-27T22:32:11;47;37;24
33948;PMS7003;20229;49.856;19.030;2022-11-27T22:37:15;48;36;23
33948;PMS7003;20229;49.856;19.030;2022-11-27T22:42:37;50;38;25
33948;PMS7003;20229;49.856;19.030;2022-11-27T22:47:41;45;34;23
33948;PMS7003;20229;49.856;19.030;2022-11-27T22:53:03;42;31;22
33948;PMS7003;20229;49.856;19.030;2022-11-27T22:58:07;43;35;22
33948;PMS7003;20229;49.856;19.030;2022-11-27T23:03:29;43;32;21
33948;PMS7003;20229;49.856;19.030;2022-11-27T23:08:34;46;34;23
33948;PMS7003;20229;49.856;19.030;2022-11-27T23:13:55;46;36;23
33948;PMS7003;20229;49.856;19.030;2022-11-27T23:19:00;45;36;22
33948;PMS7003;20229;49.856;19.030;2022-11-27T23:24:21;47;38;25
33948;PMS7003;20229;49.856;19.030;2022-11-27T23:29:24;45;35;25
33948;PMS7003;20229;49.856;19.030;2022-11-27T23:34:47;51;38;25
33948;PMS7003;20229;49.856;19.030;2022-11-27T23:39:50;48;38;26
33948;PMS7003;20229;49.856;19.030;2022-11-27T23:45:12;48;36;24
33948;PMS7003;20229;49.856;19.030;2022-11-27T23:50:16;50;38;26
33948;PMS7003;20229;49.856;19.030;2022-11-27T23:55:38;43;33;22
